createdAt,value
2018-12-07T00:01:39.833Z,9.88
2018-12-07T00:04:07.365Z,9.91
2018-12-07T00:06:34.949Z,9.93
2018-12-07T00:09:02.503Z,9.96
2018-12-07T00:11:30.083Z,9.99
2018-12-07T00:13:57.664Z,10.00
2018-12-07T00:16:25.174Z,10.03
2018-12-07T00:18:52.779Z,10.04
2018-12-07T00:21:20.363Z,10.03
2018-12-07T00:23:47.929Z,10.01
2018-12-07T00:26:15.495Z,10.04
2018-12-07T00:28:43.053Z,10.04
2018-12-07T00:31:10.633Z,10.05
2018-12-07T00:33:38.197Z,10.07
2018-12-07T00:36:05.730Z,10.08
2018-12-07T00:38:33.264Z,10.10
2018-12-07T00:41:00.836Z,10.12
2018-12-07T00:43:28.407Z,10.14
2018-12-07T00:45:55.971Z,10.16
2018-12-07T00:48:24.228Z,10.19
2018-12-07T00:50:51.754Z,10.17
2018-12-07T00:53:19.309Z,10.18
2018-12-07T00:55:46.915Z,10.19
2018-12-07T00:58:14.468Z,10.16
2018-12-07T01:00:42.042Z,10.16
2018-12-07T01:03:09.611Z,10.15
2018-12-07T01:05:37.153Z,10.17
2018-12-07T01:08:04.672Z,10.16
2018-12-07T01:10:32.227Z,10.19
2018-12-07T01:12:59.814Z,10.23
2018-12-07T01:15:27.343Z,10.24
2018-12-07T01:17:54.919Z,10.26
2018-12-07T01:20:22.506Z,10.27
2018-12-07T01:22:50.061Z,10.26
2018-12-07T01:25:17.589Z,10.25
2018-12-07T01:27:45.163Z,10.24
2018-12-07T01:30:12.691Z,10.21
2018-12-07T01:32:40.272Z,10.18
2018-12-07T01:35:07.825Z,10.20
2018-12-07T01:37:35.385Z,10.20
2018-12-07T01:40:03.734Z,10.17
2018-12-07T01:42:31.271Z,10.19
2018-12-07T01:44:58.781Z,10.20
2018-12-07T01:47:26.364Z,10.18
2018-12-07T01:49:53.939Z,10.15
2018-12-07T01:52:21.488Z,10.19
2018-12-07T01:54:49.079Z,10.23
2018-12-07T01:57:16.629Z,10.23
2018-12-07T01:59:44.152Z,10.23
2018-12-07T02:02:11.798Z,10.23
2018-12-07T02:04:39.359Z,10.21
2018-12-07T02:07:14.843Z,10.21
2018-12-07T02:09:42.395Z,10.19
2018-12-07T02:12:09.922Z,10.17
2018-12-07T02:14:37.450Z,10.16
2018-12-07T02:17:05.004Z,10.15
2018-12-07T02:19:32.557Z,10.14
2018-12-07T02:22:00.133Z,10.15
2018-12-07T02:24:27.721Z,10.17
2018-12-07T02:26:55.303Z,10.20
2018-12-07T02:29:22.846Z,10.20
2018-12-07T02:31:50.414Z,10.21
2018-12-07T02:34:18.003Z,10.21
2018-12-07T02:36:45.592Z,10.22
2018-12-07T02:39:13.132Z,10.20
2018-12-07T02:41:40.777Z,10.23
2018-12-07T02:44:08.336Z,10.24
2018-12-07T02:46:35.885Z,10.25
2018-12-07T02:49:03.443Z,10.26
2018-12-07T02:51:30.985Z,10.27
2018-12-07T02:53:58.537Z,10.27
2018-12-07T02:56:26.115Z,10.27
2018-12-07T02:58:53.654Z,10.31
2018-12-07T03:01:21.227Z,10.32
2018-12-07T03:03:48.818Z,10.33
2018-12-07T03:06:16.436Z,10.32
2018-12-07T03:08:43.986Z,10.33
2018-12-07T03:11:11.522Z,10.34
2018-12-07T03:13:39.092Z,10.33
2018-12-07T03:16:06.669Z,9.20
2018-12-07T03:18:34.276Z,10.37
2018-12-07T03:21:01.857Z,10.35
2018-12-07T03:23:29.407Z,10.37
2018-12-07T03:25:56.942Z,10.35
2018-12-07T03:28:25.364Z,10.34
2018-12-07T03:30:52.924Z,10.33
2018-12-07T03:33:20.501Z,10.33
2018-12-07T03:35:48.050Z,10.30
2018-12-07T03:38:15.614Z,10.29
2018-12-07T03:40:43.188Z,10.31
2018-12-07T03:43:10.735Z,10.29
2018-12-07T03:45:38.289Z,10.27
2018-12-07T03:48:05.833Z,10.26
2018-12-07T03:50:33.376Z,10.25
2018-12-07T03:53:00.939Z,10.26
2018-12-07T03:55:28.495Z,10.27
2018-12-07T03:57:56.022Z,10.04
2018-12-07T04:00:23.615Z,10.21
2018-12-07T04:02:51.148Z,10.16
2018-12-07T04:05:18.691Z,10.17
2018-12-07T04:07:46.243Z,10.16
2018-12-07T04:10:13.845Z,10.14
2018-12-07T04:12:41.401Z,10.09
2018-12-07T04:15:08.960Z,10.08
2018-12-07T04:17:36.592Z,10.10
2018-12-07T04:20:04.817Z,10.11
2018-12-07T04:22:32.390Z,10.10
2018-12-07T04:24:59.923Z,10.11
2018-12-07T04:27:27.512Z,10.12
2018-12-07T04:30:02.841Z,10.15
2018-12-07T04:32:30.423Z,10.17
2018-12-07T04:34:57.960Z,10.21
2018-12-07T04:37:25.515Z,10.22
2018-12-07T04:39:53.034Z,10.23
2018-12-07T04:42:20.552Z,10.25
2018-12-07T04:44:48.080Z,10.27
2018-12-07T04:47:15.606Z,10.28
2018-12-07T04:49:43.208Z,10.26
2018-12-07T04:52:10.758Z,10.27
2018-12-07T04:54:38.296Z,10.29
2018-12-07T04:57:05.845Z,10.28
2018-12-07T04:59:33.397Z,10.30
2018-12-07T05:02:00.938Z,10.31
2018-12-07T05:04:28.454Z,10.29
2018-12-07T05:06:55.991Z,10.29
2018-12-07T05:09:23.554Z,10.33
2018-12-07T05:11:51.104Z,10.34
2018-12-07T05:14:18.668Z,10.36
2018-12-07T05:16:46.210Z,10.40
2018-12-07T05:19:13.886Z,10.39
2018-12-07T05:21:41.424Z,10.40
2018-12-07T05:24:08.972Z,10.41
2018-12-07T05:26:36.534Z,10.42
2018-12-07T05:29:04.073Z,10.44
2018-12-07T05:31:31.612Z,10.46
2018-12-07T05:33:59.160Z,10.48
2018-12-07T05:36:26.731Z,10.50
2018-12-07T05:38:54.247Z,10.49
2018-12-07T05:41:21.850Z,10.47
2018-12-07T05:43:55.386Z,10.50
2018-12-07T05:46:23.027Z,10.49
2018-12-07T05:48:50.546Z,10.50
2018-12-07T05:51:18.104Z,10.30
2018-12-07T05:53:45.656Z,10.51
2018-12-07T05:56:13.214Z,10.52
2018-12-07T05:58:40.766Z,10.53
2018-12-07T06:01:08.301Z,10.53
2018-12-07T06:03:35.826Z,10.51
2018-12-07T06:06:03.455Z,10.49
2018-12-07T06:08:30.993Z,10.50
2018-12-07T06:10:58.524Z,10.49
2018-12-07T06:13:26.060Z,10.50
2018-12-07T06:15:53.581Z,10.51
2018-12-07T06:18:21.147Z,10.53
2018-12-07T06:20:48.698Z,10.50
2018-12-07T06:23:16.252Z,10.53
2018-12-07T06:25:43.827Z,10.53
2018-12-07T06:28:11.386Z,10.53
2018-12-07T06:30:38.964Z,10.55
2018-12-07T06:33:06.512Z,10.57
2018-12-07T06:35:34.066Z,10.56
2018-12-07T06:38:01.629Z,10.56
2018-12-07T06:40:29.214Z,10.55
2018-12-07T06:42:56.753Z,10.34
2018-12-07T06:45:24.306Z,10.57
2018-12-07T06:47:51.882Z,10.58
2018-12-07T06:50:19.421Z,10.56
2018-12-07T06:52:46.957Z,10.56
2018-12-07T06:55:14.504Z,10.56
2018-12-07T06:57:42.041Z,10.56
2018-12-07T07:00:09.605Z,10.56
2018-12-07T07:02:37.166Z,10.56
2018-12-07T07:05:06.424Z,10.56
2018-12-07T07:07:33.957Z,10.54
2018-12-07T07:10:01.481Z,10.54
2018-12-07T07:12:29.310Z,10.55
2018-12-07T07:14:56.935Z,10.55
2018-12-07T07:17:24.503Z,10.51
2018-12-07T07:19:52.057Z,10.52
2018-12-07T07:22:19.595Z,10.53
2018-12-07T07:24:47.163Z,10.49
2018-12-07T07:27:14.707Z,10.47
2018-12-07T07:29:42.270Z,10.46
2018-12-07T07:32:09.834Z,10.46
2018-12-07T07:34:37.394Z,10.45
2018-12-07T07:37:04.934Z,10.02
2018-12-07T07:39:32.471Z,10.46
2018-12-07T07:42:00.067Z,10.47
2018-12-07T07:44:27.716Z,10.45
2018-12-07T07:46:55.391Z,10.47
2018-12-07T07:49:22.966Z,10.47
2018-12-07T07:51:50.505Z,10.46
2018-12-07T07:54:18.059Z,10.50
2018-12-07T07:56:45.635Z,10.52
2018-12-07T07:59:13.150Z,10.54
2018-12-07T08:01:40.722Z,10.53
2018-12-07T08:04:08.280Z,10.55
2018-12-07T08:06:35.800Z,10.60
2018-12-07T08:09:05.349Z,10.62
2018-12-07T08:11:32.971Z,10.70
2018-12-07T08:14:00.523Z,10.77
2018-12-07T08:16:28.083Z,10.79
2018-12-07T08:18:55.610Z,10.85
2018-12-07T08:21:23.156Z,10.93
2018-12-07T08:23:50.680Z,11.00
2018-12-07T08:26:18.230Z,11.08
2018-12-07T08:28:45.774Z,11.13
2018-12-07T08:31:13.300Z,11.17
2018-12-07T08:33:40.860Z,11.21
2018-12-07T08:36:08.387Z,11.27
2018-12-07T08:38:35.954Z,11.30
2018-12-07T08:41:03.518Z,11.33
2018-12-07T08:43:31.111Z,11.37
2018-12-07T08:45:58.684Z,11.41
2018-12-07T08:48:26.219Z,11.43
2018-12-07T08:50:53.746Z,11.40
2018-12-07T08:53:21.411Z,11.24
2018-12-07T08:55:48.955Z,11.50
2018-12-07T08:58:16.496Z,11.50
2018-12-07T09:00:44.033Z,11.52
2018-12-07T09:03:11.555Z,11.55
2018-12-07T09:05:39.070Z,11.60
2018-12-07T09:08:06.604Z,11.62
2018-12-07T09:10:34.133Z,11.65
2018-12-07T09:13:01.723Z,11.63
2018-12-07T09:15:29.271Z,11.68
2018-12-07T09:17:56.819Z,11.75
2018-12-07T09:20:24.405Z,11.80
2018-12-07T09:22:51.959Z,11.89
2018-12-07T09:25:19.502Z,11.93
2018-12-07T09:27:47.017Z,11.96
2018-12-07T09:30:14.553Z,12.00
2018-12-07T09:32:42.141Z,12.06
2018-12-07T09:35:09.662Z,12.09
2018-12-07T09:37:37.190Z,12.12
2018-12-07T09:40:04.729Z,12.20
2018-12-07T09:42:32.268Z,12.25
2018-12-07T09:44:59.808Z,12.32
2018-12-07T09:47:27.345Z,12.42
2018-12-07T09:49:54.944Z,12.48
2018-12-07T09:52:22.497Z,12.55
2018-12-07T09:54:50.049Z,12.59
2018-12-07T09:57:17.600Z,12.66
2018-12-07T09:59:45.136Z,12.72
2018-12-07T10:02:12.668Z,12.82
2018-12-07T10:04:40.228Z,12.90
2018-12-07T10:07:07.801Z,13.01
2018-12-07T10:09:35.346Z,13.12
2018-12-07T10:12:02.891Z,13.22
2018-12-07T10:14:30.431Z,13.32
2018-12-07T10:16:57.951Z,13.42
2018-12-07T10:19:25.491Z,13.50
2018-12-07T10:21:53.048Z,13.55
2018-12-07T10:24:20.602Z,13.62
2018-12-07T10:26:48.141Z,13.59
2018-12-07T10:29:15.755Z,13.66
2018-12-07T10:31:43.461Z,13.65
2018-12-07T10:34:11.018Z,13.67
2018-12-07T10:36:38.557Z,13.70
2018-12-07T10:39:06.108Z,13.57
2018-12-07T10:41:33.653Z,13.50
2018-12-07T10:44:01.220Z,13.42
2018-12-07T10:46:28.792Z,13.46
2018-12-07T10:48:56.347Z,13.45
2018-12-07T10:51:23.905Z,13.48
2018-12-07T10:53:51.472Z,13.46
2018-12-07T10:56:19.026Z,13.43
2018-12-07T10:58:46.578Z,13.40
2018-12-07T11:01:19.770Z,13.44
2018-12-07T11:03:53.006Z,13.43
2018-12-07T11:06:26.262Z,13.40
2018-12-07T11:09:03.181Z,13.37
2018-12-07T11:11:36.333Z,13.40
2018-12-07T11:14:09.396Z,13.42
2018-12-07T11:16:42.443Z,13.37
2018-12-07T11:22:23.487Z,13.31
2018-12-07T11:24:56.558Z,13.35
2018-12-07T11:27:29.651Z,13.38
2018-12-07T11:30:05.256Z,13.45
2018-12-07T11:32:35.422Z,13.50
2018-12-07T11:35:04.970Z,13.51
2018-12-07T11:37:32.520Z,13.56
2018-12-07T11:40:00.076Z,13.64
2018-12-07T11:42:27.590Z,13.68
2018-12-07T11:44:55.141Z,13.76
2018-12-07T11:47:22.709Z,13.76
2018-12-07T11:49:50.286Z,13.79
2018-12-07T11:52:17.845Z,13.83
2018-12-07T11:54:45.439Z,13.83
2018-12-07T11:57:12.990Z,13.84
2018-12-07T11:59:40.561Z,13.90
2018-12-07T12:02:08.110Z,13.90
2018-12-07T12:04:35.685Z,13.92
2018-12-07T12:07:03.237Z,13.92
2018-12-07T12:09:30.775Z,13.85
2018-12-07T12:11:58.349Z,13.84
2018-12-07T12:14:25.949Z,13.80
2018-12-07T12:16:53.515Z,13.81
2018-12-07T12:19:21.062Z,13.86
2018-12-07T12:21:48.632Z,13.84
2018-12-07T12:24:16.173Z,13.90
2018-12-07T12:26:43.713Z,13.99
2018-12-07T12:29:11.246Z,13.98
2018-12-07T12:31:38.797Z,13.99
2018-12-07T12:34:06.374Z,14.03
2018-12-07T12:36:33.943Z,14.12
2018-12-07T12:39:01.508Z,14.20
2018-12-07T12:41:29.078Z,14.27
2018-12-07T12:43:56.633Z,14.38
2018-12-07T12:46:24.194Z,14.46
2018-12-07T12:48:51.779Z,14.55
2018-12-07T12:51:19.348Z,14.62
2018-12-07T12:53:46.897Z,14.66
2018-12-07T12:56:14.484Z,14.70
2018-12-07T12:58:42.034Z,14.71
2018-12-07T13:01:09.664Z,14.70
2018-12-07T13:03:37.216Z,14.60
2018-12-07T13:06:04.755Z,14.57
2018-12-07T13:08:32.331Z,14.56
2018-12-07T13:10:59.855Z,14.47
2018-12-07T13:13:27.433Z,14.36
2018-12-07T13:15:55.002Z,14.37
2018-12-07T13:18:22.553Z,14.32
2018-12-07T13:20:50.128Z,14.28
2018-12-07T13:23:17.707Z,14.34
2018-12-07T13:25:45.260Z,14.39
2018-12-07T13:28:12.804Z,14.38
2018-12-07T13:30:40.380Z,14.37
2018-12-07T13:33:07.967Z,14.26
2018-12-07T13:35:35.545Z,14.18
2018-12-07T13:38:03.111Z,14.14
2018-12-07T13:40:30.671Z,14.08
2018-12-07T13:42:58.375Z,14.02
2018-12-07T13:45:26.107Z,13.99
2018-12-07T13:47:53.723Z,13.91
2018-12-07T13:50:26.890Z,13.85
2018-12-07T13:52:54.661Z,13.85
2018-12-07T13:55:22.316Z,13.83
2018-12-07T13:57:50.112Z,13.78
2018-12-07T14:00:17.912Z,13.74
2018-12-07T14:02:45.678Z,13.70
2018-12-07T14:05:13.300Z,13.62
2018-12-07T14:07:41.054Z,13.57
2018-12-07T14:10:08.612Z,13.52
2018-12-07T14:12:36.190Z,13.45
2018-12-07T14:15:04.250Z,13.40
2018-12-07T14:17:31.881Z,13.38
2018-12-07T14:19:59.589Z,13.37
2018-12-07T14:22:27.291Z,13.31
2018-12-07T14:24:54.942Z,13.26
2018-12-07T14:27:22.733Z,13.25
2018-12-07T14:29:50.517Z,13.21
2018-12-07T14:32:18.321Z,13.20
2018-12-07T14:34:46.029Z,13.21
2018-12-07T14:37:13.693Z,13.24
2018-12-07T14:39:41.371Z,13.24
2018-12-07T14:42:09.075Z,13.16
2018-12-07T14:44:36.881Z,13.15
2018-12-07T14:47:04.865Z,13.11
2018-12-07T14:49:34.646Z,13.06
2018-12-07T14:52:02.454Z,13.00
2018-12-07T14:54:30.178Z,12.98
2018-12-07T14:56:57.847Z,12.96
2018-12-07T14:59:25.460Z,12.85
2018-12-07T15:01:53.158Z,12.84
2018-12-07T15:04:20.975Z,12.82
2018-12-07T15:06:48.745Z,12.74
2018-12-07T15:09:16.568Z,12.73
2018-12-07T15:11:44.249Z,12.72
2018-12-07T15:14:12.024Z,12.69
2018-12-07T15:16:39.729Z,12.72
2018-12-07T15:19:07.350Z,12.67
2018-12-07T15:21:35.007Z,12.62
2018-12-07T15:24:02.788Z,12.61
2018-12-07T15:26:30.433Z,12.60
2018-12-07T15:28:58.109Z,12.54
2018-12-07T15:31:25.646Z,12.50
2018-12-07T15:33:53.201Z,12.46
2018-12-07T15:36:20.779Z,12.45
2018-12-07T15:38:48.362Z,12.40
2018-12-07T15:41:16.383Z,12.32
2018-12-07T15:43:44.220Z,12.28
2018-12-07T15:46:11.970Z,12.16
2018-12-07T15:48:39.770Z,12.07
2018-12-07T15:51:07.444Z,11.99
2018-12-07T15:53:35.162Z,11.91
2018-12-07T15:56:02.997Z,11.85
2018-12-07T15:58:30.576Z,11.88
2018-12-07T16:00:58.167Z,11.92
2018-12-07T16:03:25.890Z,11.95
2018-12-07T16:05:53.527Z,11.93
2018-12-07T16:08:24.936Z,11.81
2018-12-07T16:10:50.902Z,11.79
2018-12-07T16:13:18.678Z,11.68
2018-12-07T16:15:46.873Z,11.54
2018-12-07T16:18:14.693Z,11.51
2018-12-07T16:20:42.512Z,11.46
2018-12-07T16:23:10.434Z,11.42
2018-12-07T16:25:38.111Z,11.42
2018-12-07T16:28:05.905Z,11.19
2018-12-07T16:30:33.616Z,11.37
2018-12-07T16:33:01.288Z,11.32
2018-12-07T16:35:29.002Z,11.29
2018-12-07T16:37:56.747Z,11.26
2018-12-07T16:40:24.562Z,11.23
2018-12-07T16:42:52.161Z,11.19
2018-12-07T16:45:19.819Z,11.15
2018-12-07T16:47:47.608Z,11.09
2018-12-07T16:50:15.473Z,11.05
2018-12-07T16:52:43.276Z,10.97
2018-12-07T16:55:11.058Z,10.95
2018-12-07T16:57:38.724Z,10.92
2018-12-07T17:00:07.857Z,10.91
2018-12-07T17:02:35.642Z,10.88
2018-12-07T17:05:03.660Z,10.87
2018-12-07T17:07:31.494Z,10.85
2018-12-07T17:09:59.086Z,10.80
2018-12-07T17:12:26.983Z,10.77
2018-12-07T17:14:54.639Z,10.80
2018-12-07T17:17:22.396Z,10.71
2018-12-07T17:19:50.001Z,10.16
2018-12-07T17:22:17.846Z,10.58
2018-12-07T17:24:45.547Z,10.51
2018-12-07T17:27:13.150Z,10.47
2018-12-07T17:29:40.802Z,10.43
2018-12-07T17:32:08.458Z,10.43
2018-12-07T17:34:36.502Z,10.44
2018-12-07T17:37:04.446Z,10.40
2018-12-07T17:39:32.252Z,10.38
2018-12-07T17:41:59.810Z,10.35
2018-12-07T17:44:27.413Z,10.29
2018-12-07T17:46:55.068Z,10.28
2018-12-07T17:49:22.873Z,10.24
2018-12-07T17:51:50.578Z,10.18
2018-12-07T17:54:18.420Z,10.17
2018-12-07T17:56:46.172Z,10.14
2018-12-07T17:59:13.875Z,10.11
2018-12-07T18:01:41.459Z,10.04
2018-12-07T18:04:09.002Z,10.01
2018-12-07T18:06:36.867Z,9.99
2018-12-07T18:09:07.054Z,9.92
2018-12-07T18:11:34.707Z,9.86
2018-12-07T18:14:02.656Z,9.83
2018-12-07T18:16:30.454Z,9.76
2018-12-07T18:18:58.204Z,9.69
2018-12-07T18:21:25.872Z,9.72
2018-12-07T18:23:53.702Z,9.71
2018-12-07T18:26:21.430Z,9.76
2018-12-07T18:28:49.001Z,9.85
2018-12-07T18:31:16.948Z,9.89
2018-12-07T18:33:44.665Z,9.91
2018-12-07T18:36:12.257Z,9.89
2018-12-07T18:38:40.405Z,9.92
2018-12-07T18:41:08.329Z,9.90
2018-12-07T18:43:36.094Z,9.89
2018-12-07T18:46:03.884Z,9.81
2018-12-07T18:48:31.733Z,9.71
2018-12-07T18:50:59.301Z,9.62
2018-12-07T18:53:27.113Z,9.59
2018-12-07T18:55:54.839Z,9.56
2018-12-07T18:58:22.543Z,9.55
2018-12-07T19:00:50.317Z,9.56
2018-12-07T19:03:18.180Z,9.56
2018-12-07T19:05:45.974Z,9.55
2018-12-07T19:08:13.876Z,9.54
2018-12-07T19:10:41.568Z,9.47
2018-12-07T19:13:09.213Z,9.49
2018-12-07T19:15:36.861Z,8.51
2018-12-07T19:18:04.552Z,9.46
2018-12-07T19:20:32.302Z,9.45
2018-12-07T19:23:00.199Z,9.45
2018-12-07T19:25:28.016Z,9.38
2018-12-07T19:27:55.805Z,9.35
2018-12-07T19:30:23.550Z,9.35
2018-12-07T19:32:51.194Z,9.29
2018-12-07T19:35:19.047Z,9.22
2018-12-07T19:37:46.809Z,9.21
2018-12-07T19:40:14.496Z,9.17
2018-12-07T19:42:42.297Z,9.17
2018-12-07T19:45:10.077Z,9.17
2018-12-07T19:47:37.890Z,9.17
2018-12-07T19:50:06.780Z,6.73
2018-12-07T19:52:34.479Z,9.18
2018-12-07T19:55:02.352Z,9.19
2018-12-07T19:57:30.200Z,9.18
2018-12-07T19:59:58.022Z,9.21
2018-12-07T20:02:25.667Z,9.23
2018-12-07T20:04:53.438Z,9.21
2018-12-07T20:07:21.303Z,9.21
2018-12-07T20:09:48.932Z,9.24
2018-12-07T20:12:16.639Z,9.30
2018-12-07T20:14:44.333Z,9.35
2018-12-07T20:17:12.043Z,9.39
2018-12-07T20:19:39.746Z,9.41
2018-12-07T20:22:07.360Z,9.42
2018-12-07T20:24:34.971Z,9.50
2018-12-07T20:27:02.837Z,9.57
2018-12-07T20:29:30.985Z,9.61
2018-12-07T20:31:58.806Z,9.63
2018-12-07T20:34:26.547Z,8.87
2018-12-07T20:36:54.144Z,9.70
2018-12-07T20:39:22.179Z,9.75
2018-12-07T20:41:49.840Z,9.81
2018-12-07T20:44:17.440Z,9.79
2018-12-07T20:46:45.156Z,9.81
2018-12-07T20:49:12.747Z,9.79
2018-12-07T20:51:40.462Z,9.80
2018-12-07T20:54:08.056Z,8.49
2018-12-07T20:56:35.915Z,9.76
2018-12-07T20:59:03.777Z,9.71
2018-12-07T21:01:31.799Z,9.72
2018-12-07T21:04:20.910Z,9.72
2018-12-07T21:07:21.926Z,9.73
2018-12-07T21:09:52.657Z,9.78
2018-12-07T21:15:39.886Z,9.80
2018-12-07T21:18:07.734Z,9.84
2018-12-07T21:20:35.765Z,9.82
2018-12-07T21:23:03.482Z,9.85
2018-12-07T21:25:31.840Z,9.86
2018-12-07T21:27:59.749Z,9.88
2018-12-07T21:33:27.820Z,9.90
2018-12-07T21:39:17.629Z,9.99
2018-12-07T21:41:45.294Z,10.00
2018-12-07T21:44:13.041Z,10.01
2018-12-07T21:46:40.766Z,10.05
2018-12-07T21:49:08.402Z,10.09
2018-12-07T21:51:45.920Z,10.11
2018-12-07T21:54:13.641Z,10.16
2018-12-07T21:56:41.358Z,10.24
2018-12-07T21:59:09.096Z,10.19
2018-12-07T22:01:36.958Z,10.17
2018-12-07T22:04:04.832Z,10.17
2018-12-07T22:06:32.531Z,10.20
2018-12-07T22:09:00.398Z,10.21
2018-12-07T22:11:28.276Z,10.19
2018-12-07T22:13:55.913Z,10.19
2018-12-07T22:16:23.470Z,10.17
2018-12-07T22:18:51.084Z,10.10
2018-12-07T22:21:18.900Z,10.03
2018-12-07T22:23:46.559Z,9.99
2018-12-07T22:26:14.329Z,9.86
2018-12-07T22:28:41.921Z,9.81
2018-12-07T22:31:09.688Z,9.72
2018-12-07T22:33:37.474Z,9.61
2018-12-07T22:36:05.195Z,9.55
2018-12-07T22:38:32.882Z,9.49
2018-12-07T22:41:00.561Z,9.48
2018-12-07T22:43:28.250Z,9.48
2018-12-07T22:45:55.781Z,9.41
2018-12-07T22:48:23.530Z,9.32
2018-12-07T22:50:51.182Z,9.27
2018-12-07T22:53:18.748Z,9.23
2018-12-07T22:55:46.306Z,9.12
2018-12-07T22:58:13.894Z,9.06
2018-12-07T23:00:43.450Z,9.02
2018-12-07T23:03:11.001Z,8.94
2018-12-07T23:05:38.584Z,8.87
2018-12-07T23:08:06.134Z,8.84
2018-12-07T23:10:33.723Z,8.86
2018-12-07T23:13:01.224Z,8.85
2018-12-07T23:15:28.800Z,8.82
2018-12-07T23:17:56.350Z,8.77
2018-12-07T23:20:23.889Z,8.73
2018-12-07T23:22:51.447Z,8.70
2018-12-07T23:25:18.961Z,8.71
2018-12-07T23:27:46.559Z,8.63
2018-12-07T23:30:14.158Z,8.62
2018-12-07T23:32:41.749Z,8.55
2018-12-07T23:35:09.331Z,8.51
2018-12-07T23:37:36.861Z,8.47
2018-12-07T23:40:04.891Z,8.41
2018-12-07T23:42:32.452Z,8.36
2018-12-07T23:44:59.985Z,8.31
2018-12-07T23:47:27.509Z,8.29
2018-12-07T23:49:55.105Z,8.26
2018-12-07T23:52:22.666Z,8.24
2018-12-07T23:54:50.234Z,8.23
2018-12-07T23:57:17.784Z,8.16
2018-12-07T23:59:45.343Z,8.12
